Aérodrome :
LOGIN :

S'inscrire | Disclaimer

   EN    FR    IT 

 










Légende :    VFR   VFR Marginal   IFR   IFR Intensif   IFR Très Intensif
Visi : 
Plafond : 
>= 8 km
>= 3000ft
5 à 8 km
1000 à 3000 ft
1500m à 5 km
500 à 1000 ft
800 à 1500m
200 à 500 ft
< 800m
< 200 ft
Symboles :   Orages  Brouillard  Fortes neiges  Fortes précipitations  Vent > 20 kt
SIGMETs :   Divers  Orages  Givrage  Turbulence  Onde Orograph.  Cendres Volcan.






- Altitude de l'aérodrome : 12 ft
- Code IATA : NCE


LFMN - Nice

DERNIER METAR :
  • 272030Z 32007KT 9999 SCT017 SCT100 10/07 Q1024 NOSIG

METARs EXPIRÉS :
  • 272000Z 32006KT 9999 SCT021 SCT150 10/08 Q1024 NOSIG
  • 271930Z 31004KT 9999 SCT021 SCT150 11/08 Q1024 NOSIG
  • 271900Z 04003KT 9999 SCT021 SCT150 11/08 Q1023 NOSIG
  • 271830Z 09004KT 9999 FEW023 SCT150 13/09 Q1023 NOSIG
  • 271800Z 08006KT 9999 FEW023 SCT150 13/09 Q1023 NOSIG

TAF TAF LFMN
Valide du 27 à 21h jusqu'au 01 à 03h UTC


272000Z 2721/0103 08003KT 9999 SCT021 SCT150
BECMG 2801/2803 09020KT
TEMPO 2811/2817 09020G30KT
BECMG 2818/2821 02010KT
BECMG 0101/0103 34010KT
ATIS : +33 4 93 17 21 16



MET'MAP, la Météo Aéronautique d'un coup d'oeil ! - Copyright ORBIFLY Décembre 2007 - Disclaimer

ORBIFLY MET'MAP TEAM :

Programmation & Développement : Alexandra Zaïnal
Sur une idée originale de : Baudouin d'Aumeries
Assistance à la programmation : Marc-Olivier Méhu
Soutien technique & logistique : Manuel Goepfert

Contact : metmap@orbifly.com




SOURCES & CREDITS :

   NOAA